createdAt,value
2023-05-01T00:04:13.525Z,3.7
2023-05-01T00:09:13.279Z,3.6
2023-05-01T00:14:13.215Z,3.4
2023-05-01T00:19:13.180Z,4.2
2023-05-01T00:24:13.120Z,3.9
2023-05-01T00:29:13.140Z,3.6
2023-05-01T00:34:13.110Z,3.3
2023-05-01T00:39:12.999Z,3.6
2023-05-01T00:44:12.905Z,3.9
2023-05-01T00:49:12.815Z,3.5
2023-05-01T00:54:12.767Z,3.7
2023-05-01T00:59:12.727Z,4.2
2023-05-01T01:04:13.730Z,4.1
2023-05-01T01:09:12.725Z,4.0
2023-05-01T01:14:12.666Z,3.9
2023-05-01T01:19:12.581Z,4.1
2023-05-01T01:24:12.553Z,3.9
2023-05-01T01:29:12.448Z,3.5
2023-05-01T01:34:12.332Z,4.0
2023-05-01T01:39:12.299Z,3.9
2023-05-01T01:44:12.362Z,3.5
2023-05-01T01:49:12.314Z,4.2
2023-05-01T01:54:12.237Z,3.2
2023-05-01T01:59:13.074Z,3.3
2023-05-01T02:04:12.213Z,3.2
2023-05-01T02:09:11.946Z,3.6
2023-05-01T02:14:11.913Z,3.2
2023-05-01T02:19:11.828Z,3.0
2023-05-01T02:24:11.808Z,2.9
2023-05-01T02:29:11.753Z,2.8
2023-05-01T02:34:11.785Z,2.7
2023-05-01T02:39:11.738Z,2.6
2023-05-01T02:44:11.671Z,2.8
2023-05-01T02:49:11.525Z,3.0
2023-05-01T02:54:11.447Z,2.5
2023-05-01T02:59:11.429Z,3.0
2023-05-01T03:04:11.470Z,3.1
2023-05-01T03:09:11.324Z,2.3
2023-05-01T03:14:11.384Z,2.5
2023-05-01T03:19:12.253Z,3.1
2023-05-01T03:24:11.267Z,2.4
2023-05-01T03:29:11.170Z,3.0
2023-05-01T03:34:19.937Z,2.5
2023-05-01T03:39:10.980Z,2.4
2023-05-01T03:44:10.919Z,2.5
2023-05-01T03:49:10.863Z,2.6
2023-05-01T03:54:10.905Z,2.6
2023-05-01T03:59:10.852Z,2.3
2023-05-01T04:04:10.981Z,3.1
2023-05-01T04:09:10.684Z,2.4
2023-05-01T04:14:10.588Z,2.6
2023-05-01T04:19:10.548Z,2.6
2023-05-01T04:24:10.482Z,2.7
2023-05-01T04:29:10.557Z,2.9
2023-05-01T04:34:10.460Z,2.4
2023-05-01T04:39:10.325Z,2.2
2023-05-01T04:44:10.222Z,2.0
2023-05-01T04:49:10.269Z,2.4
2023-05-01T04:54:10.126Z,2.5
2023-05-01T04:59:10.083Z,2.5
2023-05-01T05:04:10.102Z,2.4
2023-05-01T05:09:10.014Z,1.9
2023-05-01T05:14:10.047Z,2.2
2023-05-01T05:19:09.938Z,2.7
2023-05-01T05:24:09.947Z,2.2
2023-05-01T05:29:09.762Z,2.4
2023-05-01T05:34:09.714Z,2.4
2023-05-01T05:39:09.631Z,2.6
2023-05-01T05:44:09.648Z,2.3
2023-05-01T05:49:09.587Z,2.1
2023-05-01T05:54:09.492Z,2.5
2023-05-01T05:59:09.448Z,2.2
2023-05-01T06:04:09.467Z,2.4
2023-05-01T06:09:09.307Z,1.7
2023-05-01T06:14:09.232Z,1.8
2023-05-01T06:19:09.198Z,2.2
2023-05-01T06:24:09.182Z,2.1
2023-05-01T06:29:09.133Z,2.0
2023-05-01T06:34:09.089Z,2.1
2023-05-01T06:39:09.021Z,2.3
2023-05-01T06:44:09.028Z,2.1
2023-05-01T06:49:08.998Z,2.9
2023-05-01T06:54:08.810Z,2.2
2023-05-01T06:59:08.772Z,2.6
2023-05-01T07:04:08.688Z,2.1
2023-05-01T07:09:08.646Z,2.1
2023-05-01T07:14:08.630Z,2.4
2023-05-01T07:19:08.539Z,2.3
2023-05-01T07:24:08.486Z,2.6
2023-05-01T07:29:11.814Z,2.3
2023-05-01T07:34:15.182Z,1.9
2023-05-01T07:39:08.435Z,1.9
2023-05-01T07:44:08.359Z,1.8
2023-05-01T07:49:08.245Z,1.8
2023-05-01T07:54:08.131Z,2.8
2023-05-01T07:59:08.080Z,1.9
2023-05-01T08:04:08.130Z,1.7
2023-05-01T08:09:07.968Z,1.9
2023-05-01T08:14:07.903Z,1.8
2023-05-01T08:19:07.949Z,2.2
2023-05-01T08:24:07.888Z,2.0
2023-05-01T08:29:08.865Z,2.0
2023-05-01T08:34:07.760Z,2.1
2023-05-01T08:39:07.714Z,1.8
2023-05-01T08:44:07.635Z,1.8
2023-05-01T08:49:07.527Z,1.6
2023-05-01T08:54:07.473Z,1.8
2023-05-01T08:59:07.450Z,2.0
2023-05-01T09:04:07.427Z,1.5
2023-05-01T09:09:07.322Z,1.7
2023-05-01T09:14:07.317Z,1.4
2023-05-01T09:19:07.255Z,1.7
2023-05-01T09:24:07.302Z,1.5
2023-05-01T09:29:07.112Z,1.8
2023-05-01T09:34:15.924Z,1.6
2023-05-01T09:40:24.917Z,1.8
2023-05-01T09:45:17.464Z,1.6
2023-05-01T09:50:17.317Z,2.1
2023-05-01T09:55:17.394Z,1.8
2023-05-01T10:00:18.278Z,1.5
2023-05-01T10:05:17.118Z,1.7
2023-05-01T10:10:17.073Z,1.3
2023-05-01T10:15:25.595Z,1.5
2023-05-01T10:20:18.013Z,1.6
2023-05-01T10:25:17.084Z,1.5
2023-05-01T10:30:17.075Z,1.6
2023-05-01T10:35:16.855Z,1.5
2023-05-01T10:40:16.816Z,1.2
2023-05-01T10:45:16.710Z,1.2
2023-05-01T10:50:16.696Z,1.5
2023-05-01T10:55:16.573Z,1.4
2023-05-01T11:00:16.603Z,1.5
2023-05-01T11:05:19.981Z,1.4
2023-05-01T11:10:17.490Z,1.2
2023-05-01T11:15:16.421Z,1.2
2023-05-01T11:20:16.328Z,1.6
2023-05-01T11:25:16.388Z,1.5
2023-05-01T11:30:16.347Z,1.3
2023-05-01T11:35:16.321Z,1.5
2023-05-01T11:40:16.103Z,1.0
2023-05-01T11:45:16.100Z,1.4
2023-05-01T11:50:16.357Z,0.9
2023-05-01T11:55:15.999Z,1.0
2023-05-01T12:00:15.933Z,1.3
2023-05-01T12:05:15.932Z,1.1
2023-05-01T12:10:15.966Z,1.1
2023-05-01T12:15:15.913Z,1.1
2023-05-01T12:20:15.745Z,1.0
2023-05-01T12:25:15.709Z,1.0
2023-05-01T12:30:15.610Z,1.1
2023-05-01T12:35:15.614Z,1.0
2023-05-01T12:40:15.599Z,1.0
2023-05-01T12:45:15.611Z,1.3
2023-05-01T12:50:15.467Z,1.2
2023-05-01T12:55:15.368Z,1.4
2023-05-01T13:00:15.345Z,1.3
2023-05-01T13:05:15.252Z,1.4
2023-05-01T13:10:15.267Z,1.5
2023-05-01T13:15:15.117Z,1.5
2023-05-01T13:20:15.074Z,1.3
2023-05-01T13:25:15.050Z,1.1
2023-05-01T13:30:14.966Z,1.3
2023-05-01T13:35:15.033Z,1.0
2023-05-01T13:40:18.367Z,1.5
2023-05-01T13:45:14.915Z,1.2
2023-05-01T13:50:14.840Z,1.1
2023-05-01T13:55:14.835Z,2.5
2023-05-01T14:00:14.686Z,1.4
2023-05-01T14:05:14.643Z,1.1
2023-05-01T14:10:14.555Z,1.2
2023-05-01T14:15:14.485Z,1.3
2023-05-01T14:20:14.428Z,1.4
2023-05-01T14:25:14.342Z,1.4
2023-05-01T14:30:14.316Z,1.3
2023-05-01T14:35:14.252Z,1.4
2023-05-01T14:40:14.197Z,1.4
2023-05-01T14:45:14.254Z,1.3
2023-05-01T14:50:14.091Z,1.4
2023-05-01T14:55:14.033Z,1.3
2023-05-01T15:00:14.998Z,1.2
2023-05-01T15:05:13.912Z,1.1
2023-05-01T15:10:13.994Z,1.4
2023-05-01T15:15:14.942Z,1.0
2023-05-01T15:20:13.857Z,1.1
2023-05-01T15:25:13.732Z,2.2
2023-05-01T15:30:13.712Z,2.3
2023-05-01T15:35:13.651Z,2.8
2023-05-01T15:40:13.625Z,3.2
2023-05-01T15:45:23.550Z,3.5
2023-05-01T15:50:13.560Z,3.4
2023-05-01T15:55:13.440Z,3.4
2023-05-01T16:00:13.379Z,3.8
2023-05-01T16:05:13.344Z,2.9
2023-05-01T16:10:13.222Z,2.4
2023-05-01T16:15:13.204Z,2.5
2023-05-01T16:20:13.170Z,2.0
2023-05-01T16:25:13.115Z,1.6
2023-05-01T16:30:13.014Z,1.7
2023-05-01T16:35:12.927Z,1.6
2023-05-01T16:40:12.896Z,1.6
2023-05-01T16:45:12.855Z,1.6
2023-05-01T16:50:12.815Z,1.7
2023-05-01T16:55:12.730Z,1.1
2023-05-01T17:00:12.769Z,1.7
2023-05-01T17:05:12.718Z,24.4
2023-05-01T17:10:12.639Z,1.4
2023-05-01T17:15:12.562Z,1.8
2023-05-01T17:20:12.510Z,3.8
2023-05-01T17:25:12.430Z,1.8
2023-05-01T17:30:12.378Z,1.8
2023-05-01T17:35:12.294Z,1.6
2023-05-01T17:40:12.252Z,1.2
2023-05-01T17:45:12.162Z,1.6
2023-05-01T17:50:12.165Z,1.4
2023-05-01T17:55:12.077Z,1.5
2023-05-01T18:00:12.018Z,1.8
2023-05-01T18:05:11.961Z,1.9
2023-05-01T18:10:11.930Z,1.7
2023-05-01T18:15:13.754Z,1.7
2023-05-01T18:20:11.809Z,1.7
2023-05-01T18:25:11.884Z,4.0
2023-05-01T18:30:11.774Z,1.9
2023-05-01T18:35:11.699Z,1.3
2023-05-01T18:40:11.693Z,3.4
2023-05-01T18:45:11.502Z,2.0
2023-05-01T18:50:11.533Z,2.0
2023-05-01T18:55:11.558Z,6.2
2023-05-01T19:00:11.398Z,3.6
2023-05-01T19:05:11.356Z,4.8
2023-05-01T19:10:11.286Z,6.0
2023-05-01T19:15:11.199Z,6.3
2023-05-01T19:20:11.126Z,5.5
2023-05-01T19:25:11.063Z,5.6
2023-05-01T19:30:11.039Z,4.5
2023-05-01T19:35:11.051Z,3.9
2023-05-01T19:40:10.956Z,5.5
2023-05-01T19:45:10.868Z,7.2
2023-05-01T19:50:10.825Z,3.7
2023-05-01T19:55:10.877Z,6.3
2023-05-01T20:00:11.702Z,8.2
2023-05-01T20:05:10.751Z,4.7
2023-05-01T20:10:10.643Z,4.7
2023-05-01T20:15:10.498Z,5.6
2023-05-01T20:20:10.483Z,5.7
2023-05-01T20:25:10.408Z,6.0
2023-05-01T20:30:10.385Z,5.2
2023-05-01T20:35:10.301Z,5.9
2023-05-01T20:40:10.365Z,6.1
2023-05-01T20:45:10.193Z,6.1
2023-05-01T20:50:10.137Z,6.3
2023-05-01T20:55:10.436Z,6.7
2023-05-01T21:00:10.124Z,7.0
2023-05-01T21:05:10.059Z,7.2
2023-05-01T21:10:10.056Z,6.5
2023-05-01T21:15:09.950Z,7.4
2023-05-01T21:20:09.840Z,8.2
2023-05-01T21:25:09.945Z,8.5
2023-05-01T21:30:09.703Z,9.0
2023-05-01T21:35:09.799Z,9.3
2023-05-01T21:40:09.762Z,7.8
2023-05-01T21:45:09.522Z,6.4
2023-05-01T21:50:19.341Z,12.0
2023-05-01T21:55:09.400Z,12.8
2023-05-01T22:00:09.542Z,12.5
2023-05-01T22:05:09.478Z,11.9
2023-05-01T22:10:09.391Z,13.3
2023-05-01T22:15:09.329Z,13.5
2023-05-01T22:20:09.207Z,13.4
2023-05-01T22:25:09.064Z,13.1
2023-05-01T22:30:09.019Z,13.8
2023-05-01T22:35:09.053Z,13.8
2023-05-01T22:40:08.899Z,13.4
2023-05-01T22:45:08.886Z,12.7
2023-05-01T22:50:08.824Z,11.7
2023-05-01T22:55:08.865Z,13.0
2023-05-01T23:00:08.814Z,13.6
2023-05-01T23:05:08.733Z,15.2
2023-05-01T23:10:08.668Z,18.2
2023-05-01T23:15:08.526Z,18.7
2023-05-01T23:20:08.562Z,18.8
2023-05-01T23:25:08.441Z,19.7
2023-05-01T23:30:08.343Z,19.5
2023-05-01T23:35:08.273Z,19.9
2023-05-01T23:40:08.271Z,20.5
2023-05-01T23:45:08.241Z,20.0
2023-05-01T23:50:08.164Z,21.0
2023-05-01T23:55:08.119Z,21.5
